Ncc Najd — HZAK — position and weather

sailwx.info

Track history (hours):
 
Tides and Currents Weather Stations Pressure Air Temp Water Temp Dewpoint Dewpoint Depression Visibility Wind Speed Wind Dir Waves Ship Positions

Ncc Najd

Last reported at 2015-Apr-18 04:05 UTC. Time now 2015-Apr-18 13:15 UTC.
Position N 29°59' E 121°45'.

Length 183 m; draft 9.4 m.

Type: Ship. MMSI: 403579000.

Date/timePositionNaut miles runAvg speedWind from/ knotsBaromVisibWave heightAir tempDewpointWater temp
2015-Apr-18 04:05N 29°59' E 121°45'0 0.0
2015-Apr-18 01:29N 29°59' E 121°45'0 0.0
2015-Apr-17 22:05N 29°59' E 121°45'0 0.0
2015-Apr-17 02:20N 29°59' E 121°45'0 0.0
2015-Apr-17 01:33N 29°59' E 121°45'0 0.2
2015-Apr-17 00:33N 29°59' E 121°45'2 0.1
2015-Apr-16 02:33N 29°59' E 121°48'8 7.9
2015-Apr-16 01:33N 29°59' E 121°57'1312.6
2015-Apr-16 00:33N 29°55' E 122°10'1211.8
2015-Apr-15 23:33N 29°46' E 122°19'9 9.1
2015-Apr-15 22:33N 29°45' E 122°29'3 0.6
2015-Apr-15 17:05N 29°44' E 122°33'0 0.1
2015-Apr-15 16:18N 29°44' E 122°33'0 0.1
2015-Apr-15 14:30N 29°44' E 122°33'0 0.0
2015-Apr-15 12:18N 29°44' E 122°33'0 0.0
2015-Apr-15 03:18N 29°44' E 122°33'0 0.0
2015-Apr-15 01:29N 29°44' E 122°33'0 0.1
2015-Apr-15 00:18N 29°44' E 122°33'0 0.0
2015-Apr-14 22:06N 29°44' E 122°33'0 0.0
2015-Apr-14 19:23N 29°44' E 122°33'0 0.0
2015-Apr-14 16:29N 29°44' E 122°33'0 0.0
2015-Apr-14 15:12N 29°44' E 122°33'0 0.0
2015-Apr-14 07:25N 29°44' E 122°33'6 7.1
2015-Apr-14 06:33N 29°42' E 122°39'32912.6
2015-Apr-13 04:22N 24°54' E 119°39'1713.4
2015-Apr-13 03:07N 24°54' E 119°20'813.9
2015-Apr-13 02:31N 24°56' E 119°11'1010.0
2015-Apr-13 01:33N 25°02' E 119°03'10 9.7
2015-Apr-13 00:33N 25°11' E 118°59'0 0.0
2015-Apr-12 16:33N 25°11' E 118°59'0 0.0
2015-Apr-12 15:28N 25°11' E 118°59'0 0.0
2015-Apr-12 14:33N 25°11' E 118°59'0 0.0
2015-Apr-12 13:27N 25°11' E 118°59'0 0.0
2015-Apr-12 12:22N 25°11' E 118°59'0 0.0
2015-Apr-12 11:33N 25°11' E 118°59'0 0.0
2015-Apr-12 10:21N 25°11' E 118°59'0 0.0
2015-Apr-12 09:33N 25°11' E 118°59'0 0.0
2015-Apr-12 08:33N 25°11' E 118°59'0 0.0
2015-Apr-12 07:27N 25°11' E 118°59'0 0.0
2015-Apr-12 05:27N 25°11' E 118°59'0 0.0
2015-Apr-12 04:27N 25°11' E 118°59'0 0.0
2015-Apr-12 03:27N 25°11' E 118°59'0 0.0
2015-Apr-12 02:15N 25°11' E 118°59'0 0.4
2015-Apr-12 01:33N 25°10' E 118°59'9 8.6
2015-Apr-12 00:33N 25°02' E 119°03'1 1.1
2015-Apr-11 23:32N 25°01' E 119°03'0 0.0
2015-Apr-11 22:32N 25°01' E 119°03'0 0.1
2015-Apr-11 21:32N 25°01' E 119°03'0 0.0
2015-Apr-11 20:32N 25°01' E 119°03'0 0.1
2015-Apr-11 19:32N 25°01' E 119°03'0 0.1
2015-Apr-11 18:33N 25°01' E 119°03'4 4.0
2015-Apr-11 17:33N 24°57' E 119°04'1211.9
2015-Apr-11 16:33N 24°46' E 119°04'1413.9
2015-Apr-11 15:33N 24°33' E 118°58'1413.6
2015-Apr-11 14:32N 24°19' E 118°54'34711.6
2015-Apr-10 08:32N 21°50' E 113°13'4 3.7
2015-Apr-10 07:31N 21°53' E 113°14'0 0.0
2015-Apr-10 06:33N 21°53' E 113°14'0 0.0
2015-Apr-10 05:33N 21°53' E 113°14'0 0.0
2015-Apr-10 04:33N 21°53' E 113°14'0 0.0
2015-Apr-10 03:33N 21°53' E 113°14'0 0.0
2015-Apr-10 02:27N 21°53' E 113°14'0 0.0
2015-Apr-10 01:21N 21°53' E 113°14'0 0.0
2015-Apr-10 00:33N 21°53' E 113°14'0 0.0
2015-Apr-09 22:33N 21°53' E 113°14'0 0.0
2015-Apr-09 21:33N 21°53' E 113°14'0 0.0
2015-Apr-09 20:33N 21°53' E 113°14'0 0.0
2015-Apr-09 19:33N 21°53' E 113°14'0 0.0
2015-Apr-09 18:33N 21°53' E 113°14'0 0.0
2015-Apr-09 17:21N 21°53' E 113°14'0 0.0
2015-Apr-09 16:33N 21°53' E 113°14'0 0.0
2015-Apr-09 15:21N 21°53' E 113°14'0 0.0
2015-Apr-09 14:33N 21°53' E 113°14'0 0.0
2015-Apr-09 13:27N 21°53' E 113°14'0 0.0
2015-Apr-09 12:33N 21°53' E 113°14'0 0.0
2015-Apr-09 11:21N 21°53' E 113°14'0 0.0
2015-Apr-09 10:27N 21°53' E 113°14'0 0.0
2015-Apr-09 09:33N 21°53' E 113°14'0 0.0
2015-Apr-09 08:15N 21°53' E 113°14'0 0.0
2015-Apr-09 07:21N 21°53' E 113°14'0 0.0
2015-Apr-09 06:21N 21°53' E 113°14'0 0.0
2015-Apr-09 05:33N 21°53' E 113°14'0 0.0
2015-Apr-09 04:33N 21°53' E 113°14'0 0.0
2015-Apr-09 01:32N 21°53' E 113°14'5 5.2
2015-Apr-09 00:33N 21°49' E 113°16'2 1.3
2015-Apr-08 23:04N 21°49' E 113°18'0 0.0
2015-Apr-08 22:28N 21°49' E 113°18'0 0.0
2015-Apr-08 21:28N 21°49' E 113°18'0 0.0
2015-Apr-08 20:22N 21°49' E 113°18'0 0.0
2015-Apr-08 19:28N 21°49' E 113°18'0 0.0
2015-Apr-08 18:22N 21°49' E 113°18'0 0.0
2015-Apr-08 17:22N 21°49' E 113°18'0 0.1
2015-Apr-08 15:33N 21°49' E 113°18'9 9.2
2015-Apr-08 14:33N 21°40' E 113°16'  
Track history (hours):
 
Tides and Currents Weather Stations Pressure Air Temp Water Temp Dewpoint Dewpoint Depression Visibility Wind Speed Wind Dir Waves Ship Positions

Ncc Najd

Last reported at 2015-Apr-18 04:05 UTC. Time now 2015-Apr-18 13:15 UTC.
Position N 29°59' E 121°45'.

Length 183 m; draft 9.4 m.

Type: Ship. MMSI: 403579000.

Date/timePositionNaut miles runAvg speedWind from/ knotsBaromVisibWave heightAir tempDewpointWater temp
2015-Apr-18 04:05N 29°59' E 121°45'0 0.0
2015-Apr-18 01:29N 29°59' E 121°45'0 0.0
2015-Apr-17 22:05N 29°59' E 121°45'0 0.0
2015-Apr-17 02:20N 29°59' E 121°45'0 0.0
2015-Apr-17 01:33N 29°59' E 121°45'0 0.2
2015-Apr-17 00:33N 29°59' E 121°45'2 0.1
2015-Apr-16 02:33N 29°59' E 121°48'8 7.9
2015-Apr-16 01:33N 29°59' E 121°57'1312.6
2015-Apr-16 00:33N 29°55' E 122°10'1211.8
2015-Apr-15 23:33N 29°46' E 122°19'9 9.1
2015-Apr-15 22:33N 29°45' E 122°29'3 0.6
2015-Apr-15 17:05N 29°44' E 122°33'0 0.1
2015-Apr-15 16:18N 29°44' E 122°33'0 0.1
2015-Apr-15 14:30N 29°44' E 122°33'0 0.0
2015-Apr-15 12:18N 29°44' E 122°33'0 0.0
2015-Apr-15 03:18N 29°44' E 122°33'0 0.0
2015-Apr-15 01:29N 29°44' E 122°33'0 0.1
2015-Apr-15 00:18N 29°44' E 122°33'0 0.0
2015-Apr-14 22:06N 29°44' E 122°33'0 0.0
2015-Apr-14 19:23N 29°44' E 122°33'0 0.0
2015-Apr-14 16:29N 29°44' E 122°33'0 0.0
2015-Apr-14 15:12N 29°44' E 122°33'0 0.0
2015-Apr-14 07:25N 29°44' E 122°33'6 7.1
2015-Apr-14 06:33N 29°42' E 122°39'32912.6
2015-Apr-13 04:22N 24°54' E 119°39'1713.4
2015-Apr-13 03:07N 24°54' E 119°20'813.9
2015-Apr-13 02:31N 24°56' E 119°11'1010.0
2015-Apr-13 01:33N 25°02' E 119°03'10 9.7
2015-Apr-13 00:33N 25°11' E 118°59'0 0.0
2015-Apr-12 16:33N 25°11' E 118°59'0 0.0
2015-Apr-12 15:28N 25°11' E 118°59'0 0.0
2015-Apr-12 14:33N 25°11' E 118°59'0 0.0
2015-Apr-12 13:27N 25°11' E 118°59'0 0.0
2015-Apr-12 12:22N 25°11' E 118°59'0 0.0
2015-Apr-12 11:33N 25°11' E 118°59'0 0.0
2015-Apr-12 10:21N 25°11' E 118°59'0 0.0
2015-Apr-12 09:33N 25°11' E 118°59'0 0.0
2015-Apr-12 08:33N 25°11' E 118°59'0 0.0
2015-Apr-12 07:27N 25°11' E 118°59'0 0.0
2015-Apr-12 05:27N 25°11' E 118°59'0 0.0
2015-Apr-12 04:27N 25°11' E 118°59'0 0.0
2015-Apr-12 03:27N 25°11' E 118°59'0 0.0
2015-Apr-12 02:15N 25°11' E 118°59'0 0.4
2015-Apr-12 01:33N 25°10' E 118°59'9 8.6
2015-Apr-12 00:33N 25°02' E 119°03'1 1.1
2015-Apr-11 23:32N 25°01' E 119°03'0 0.0
2015-Apr-11 22:32N 25°01' E 119°03'0 0.1
2015-Apr-11 21:32N 25°01' E 119°03'0 0.0
2015-Apr-11 20:32N 25°01' E 119°03'0 0.1
2015-Apr-11 19:32N 25°01' E 119°03'0 0.1
2015-Apr-11 18:33N 25°01' E 119°03'4 4.0
2015-Apr-11 17:33N 24°57' E 119°04'1211.9
2015-Apr-11 16:33N 24°46' E 119°04'1413.9
2015-Apr-11 15:33N 24°33' E 118°58'1413.6
2015-Apr-11 14:32N 24°19' E 118°54'34711.6
2015-Apr-10 08:32N 21°50' E 113°13'4 3.7
2015-Apr-10 07:31N 21°53' E 113°14'0 0.0
2015-Apr-10 06:33N 21°53' E 113°14'0 0.0
2015-Apr-10 05:33N 21°53' E 113°14'0 0.0
2015-Apr-10 04:33N 21°53' E 113°14'0 0.0
2015-Apr-10 03:33N 21°53' E 113°14'0 0.0
2015-Apr-10 02:27N 21°53' E 113°14'0 0.0
2015-Apr-10 01:21N 21°53' E 113°14'0 0.0
2015-Apr-10 00:33N 21°53' E 113°14'0 0.0
2015-Apr-09 22:33N 21°53' E 113°14'0 0.0
2015-Apr-09 21:33N 21°53' E 113°14'0 0.0
2015-Apr-09 20:33N 21°53' E 113°14'0 0.0
2015-Apr-09 19:33N 21°53' E 113°14'0 0.0
2015-Apr-09 18:33N 21°53' E 113°14'0 0.0
2015-Apr-09 17:21N 21°53' E 113°14'0 0.0
2015-Apr-09 16:33N 21°53' E 113°14'0 0.0
2015-Apr-09 15:21N 21°53' E 113°14'0 0.0
2015-Apr-09 14:33N 21°53' E 113°14'0 0.0
2015-Apr-09 13:27N 21°53' E 113°14'0 0.0
2015-Apr-09 12:33N 21°53' E 113°14'0 0.0
2015-Apr-09 11:21N 21°53' E 113°14'0 0.0
2015-Apr-09 10:27N 21°53' E 113°14'0 0.0
2015-Apr-09 09:33N 21°53' E 113°14'0 0.0
2015-Apr-09 08:15N 21°53' E 113°14'0 0.0
2015-Apr-09 07:21N 21°53' E 113°14'0 0.0
2015-Apr-09 06:21N 21°53' E 113°14'0 0.0
2015-Apr-09 05:33N 21°53' E 113°14'0 0.0
2015-Apr-09 04:33N 21°53' E 113°14'0 0.0
2015-Apr-09 01:32N 21°53' E 113°14'5 5.2
2015-Apr-09 00:33N 21°49' E 113°16'2 1.3
2015-Apr-08 23:04N 21°49' E 113°18'0 0.0
2015-Apr-08 22:28N 21°49' E 113°18'0 0.0
2015-Apr-08 21:28N 21°49' E 113°18'0 0.0
2015-Apr-08 20:22N 21°49' E 113°18'0 0.0
2015-Apr-08 19:28N 21°49' E 113°18'0 0.0
2015-Apr-08 18:22N 21°49' E 113°18'0 0.0
2015-Apr-08 17:22N 21°49' E 113°18'0 0.1
2015-Apr-08 15:33N 21°49' E 113°18'9 9.2
2015-Apr-08 14:33N 21°40' E 113°16'  

Dump ship's entire track history